KHTO

East Hampton Airport

East Hampton, New York, USA
METAR KHTO 271155Z AUTO 05008KT 2 1/2SM -RA OVC003 13/13 A3004 RMK AO2 T01300125 10187 20130
Observed Flight Rules
May-27 @ 11:55 UTC (10 minutes ago) Instrument Flight Rules
Wind Visibility Clouds Conditions
50° at 8 knots 2 1/2 miles
  • Overcast at 300' AGL
  • Light Rain
Temperatures Readings
Current 13°C / 55°F
Dewpoint 13°C / 55°F
Humidity 100%
Altimeter 30.04" Hg
Pressure 1017 hPa
Elevation 17
METAR KHTO 271155Z AUTO 05008KT 2 1/2SM -RA OVC003 13/13 A3004 RMK AO2 T01300125 10187 20130
Observed Flight Rules
May-27 @ 11:55 UTC
(10 minutes ago)
LIFR
Wind Visibility
50° at 8 knots 2 1/2 miles
Clouds
  • Overcast at 300' AGL
Conditions
  • Light Rain
Temperature Dewpoint
13°C / 55°F 13°C / 55°F
Humidity Altimeter Pressure
100% 30.04" Hg 1017 hPa